Time;durP1;ratioP1;P1;durP2;ratioP2;P2;SDS_P1;SDS_P2;PMS_P1;PMS_P2;Temp;Humidity;BMP_temperature;BMP_pressure;BME280_temperature;BME280_humidity;BME280_pressure;Samples;Min_cycle;Max_cycle;Signal;HPM_P1;HPM_P2
2022/03/07 00:05:07;;;;;;;6.37;4.70;;;3.30;34.50;;;6.12;31.45;99196.34;4845817;29;124999;-79
2022/03/07 00:11:17;;;;;;;7.43;4.87;;;3.80;35.20;;;6.12;31.88;99196.34;4846895;29;115304;-78
2022/03/07 00:17:29;;;;;;;6.20;4.50;;;3.30;35.10;;;5.98;32.01;99201.53;4846524;29;124982;-75
2022/03/07 00:23:40;;;;;;;6.80;4.10;;;3.70;35.80;;;5.94;31.93;99197.72;4846764;29;115284;-75
2022/03/07 00:26:09;;;;;;;6.40;4.40;;;5.40;37.70;;;5.95;33.00;99202.91;4831063;29;114499;-75
2022/03/07 06:14:14;;;;;;;11.23;6.67;;;2.60;43.80;;;3.12;38.33;99256.84;5861660;23;98355;31
2022/03/07 06:20:42;;;;;;;10.40;6.50;;;1.00;42.60;;;3.08;38.64;99248.34;4792924;29;125081;-75
2022/03/07 06:26:50;;;;;;;10.17;7.30;;;2.50;44.70;;;3.15;38.91;99248.19;4792273;29;115223;-76
2022/03/07 06:32:58;;;;;;;9.47;5.90;;;2.60;45.20;;;3.37;38.61;99240.81;4774597;29;124924;-74
2022/03/07 06:39:08;;;;;;;7.47;5.07;;;2.80;44.70;;;3.50;38.05;99240.44;4774305;29;117547;-74
2022/03/07 06:45:17;;;;;;;6.37;5.47;;;2.90;44.40;;;3.57;37.94;99245.69;4774184;29;126340;-80
2022/03/07 06:51:25;;;;;;;9.43;5.07;;;3.00;44.00;;;3.57;37.90;99255.78;4772802;29;115442;-77
2022/03/07 06:57:34;;;;;;;7.50;5.63;;;3.00;43.90;;;3.51;37.77;99246.72;4774078;29;125004;-79
2022/03/07 07:03:42;;;;;;;10.27;6.00;;;2.90;44.30;;;3.31;38.52;99258.22;4774311;29;115293;-75
2022/03/07 07:09:51;;;;;;;8.33;5.97;;;2.80;44.30;;;3.37;38.26;99264.56;4754530;29;125232;-75
2022/03/07 07:19:48;;;;;;;11.53;6.10;;;2.90;44.50;;;3.52;38.49;99281.97;4756339;29;114969;-75
2022/03/07 07:25:56;;;;;;;10.30;6.77;;;2.90;44.80;;;3.57;38.63;99289.38;4756054;29;124751;-75
2022/03/07 07:50:36;;;;;;;7.87;5.63;;;3.50;44.70;;;4.28;37.84;99286.63;5550856;23;98796;-75
2022/03/07 07:56:45;;;;;;;9.83;6.67;;;1.50;42.70;;;4.34;37.66;99293.78;4846411;29;126406;-76
2022/03/07 08:02:54;;;;;;;11.87;6.97;;;2.30;43.20;;;4.33;37.85;99292.13;4846721;29;115308;-75
2022/03/07 08:09:04;;;;;;;8.37;5.43;;;2.20;42.90;;;4.46;37.94;99314.66;4845801;29;125159;-75
2022/03/07 08:15:16;;;;;;;10.13;6.47;;;3.80;44.10;;;4.50;37.66;99324.03;4846010;29;115410;-77
2022/03/07 08:21:25;;;;;;;7.70;5.97;;;2.60;43.00;;;4.67;37.58;99330.19;4846384;29;125036;-80
2022/03/07 08:27:34;;;;;;;11.67;6.80;;;6.50;45.60;;;4.75;37.57;99329.69;4846812;29;115254;-78
2022/03/07 08:32:38;;;;;;;10.43;6.90;;;4.10;44.40;;;4.88;37.43;99326.53;5577422;23;98771;-75
2022/03/07 08:38:47;;;;;;;7.60;5.60;;;2.30;42.50;;;5.08;36.51;99319.56;4846063;29;116258;-76
2022/03/07 08:44:55;;;;;;;12.40;7.67;;;2.80;42.10;;;5.18;35.95;99330.56;4845707;29;124866;-86
2022/03/07 08:51:04;;;;;;;9.73;6.63;;;2.60;41.00;;;5.18;35.14;99336.03;4846300;29;115403;-77
2022/03/07 08:57:16;;;;;;;7.30;5.40;;;3.20;41.20;;;5.28;35.54;99327.91;4845619;29;125009;-76
2022/03/07 09:03:25;;;;;;;8.90;7.17;;;4.60;41.80;;;5.28;34.82;99338.03;4846178;29;115274;-76
2022/03/07 09:09:35;;;;;;;6.27;5.00;;;2.90;40.10;;;5.38;35.31;99324.41;4844229;29;125027;-84
2022/03/07 09:15:45;;;;;;;6.53;4.80;;;2.80;39.90;;;5.50;35.25;99333.22;4846045;29;115272;-87
2022/03/07 09:18:49;;;;;;;9.17;6.63;;;3.20;41.10;;;5.64;35.22;99335.47;4830082;29;114509;-79
2022/03/07 09:24:59;;;;;;;10.43;6.30;;;5.20;41.60;;;5.70;35.24;99331.69;4844189;29;124825;-88
2022/03/07 09:43:47;;;;;;;9.03;6.00;;;5.30;41.00;;;5.98;34.17;99349.66;5090657;23;98801;-82
2022/03/07 09:49:55;;;;;;;9.03;6.53;;;4.20;39.70;;;5.98;34.49;99339.50;4848610;29;124724;-82
2022/03/07 09:56:42;;;;;;;9.30;6.90;;;4.90;39.90;;;6.00;33.52;99346.66;4848743;29;114926;-76
2022/03/07 10:03:05;;;;;;;8.47;6.50;;;5.30;39.60;;;5.83;33.41;99341.31;4848795;29;126435;-86
2022/03/07 10:09:21;;;;;;;6.67;5.53;;;4.10;38.90;;;5.97;33.73;99348.00;4848504;29;115042;-77
2022/03/07 10:15:50;;;;;;;15.17;7.67;;;3.30;38.30;;;6.02;33.76;99350.78;4847797;29;124756;-85
2022/03/07 10:22:01;;;;;;;9.23;6.50;;;4.40;39.20;;;6.25;33.64;99354.13;4810173;29;114968;-78
2022/03/07 10:28:10;;;;;;;6.57;5.00;;;4.70;39.20;;;6.44;33.71;99352.53;4810282;29;124689;-77
2022/03/07 11:35:43;;;;;;;9.40;6.83;;;6.00;37.00;;;7.84;31.21;99289.66;4829282;29;116187;-77
2022/03/07 11:41:55;;;;;;;10.77;8.20;;;7.10;36.90;;;7.77;30.97;99300.16;4828458;29;124816;-78
2022/03/07 11:48:13;;;;;;;10.70;7.13;;;6.20;35.90;;;7.76;30.87;99306.75;4828716;29;116631;-87
2022/03/07 11:54:55;;;;;;;7.73;5.20;;;5.10;34.90;;;7.89;30.94;99305.34;4827132;29;95727;-80
2022/03/07 11:57:47;;;;;;;8.90;6.23;;;7.20;37.40;;;8.07;30.83;99292.88;4809617;29;114984;-85
2022/03/07 12:04:15;;;;;;;12.60;7.47;;;5.70;34.20;;;8.29;30.21;99289.69;4827876;29;125163;-80
2022/03/07 12:10:24;;;;;;;7.00;5.70;;;8.20;36.70;;;8.58;30.28;99284.31;4827806;29;115292;-78
2022/03/07 12:16:41;;;;;;;8.80;7.07;;;6.10;34.30;;;8.88;29.59;99290.66;4825328;29;126526;-78
2022/03/07 12:22:50;;;;;;;6.33;5.40;;;6.90;34.70;;;8.94;29.78;99283.97;4809765;29;115303;-77
2022/03/07 12:39:14;;;;;;;7.70;6.10;;;8.00;34.60;;;9.50;28.88;99244.78;4806885;29;114985;-76
2022/03/07 12:45:22;;;;;;;8.77;6.27;;;7.30;33.40;;;9.91;28.90;99233.22;4809165;29;124783;-77
2022/03/07 12:51:32;;;;;;;6.37;4.77;;;9.40;34.90;;;10.35;28.75;99235.63;4809413;29;115943;-77
2022/03/07 12:54:55;;;;;;;4.97;4.33;;;9.50;35.70;;;10.60;28.28;99223.34;4808240;29;124733;-86
2022/03/07 13:01:04;;;;;;;7.70;5.10;;;10.00;31.50;;;10.74;27.59;99225.31;4809150;29;115283;-78
2022/03/07 13:07:15;;;;;;;7.53;5.80;;;10.00;32.50;;;11.20;27.00;99202.34;4808929;29;125148;-83
2022/03/07 13:10:44;;;;;;;6.90;5.30;;;10.60;33.70;;;11.45;27.27;99206.56;4808762;29;124528;-82
2022/03/07 13:16:55;;;;;;;11.97;7.17;;;10.80;31.80;;;11.83;26.00;99200.78;4793971;29;116296;-80
2022/03/07 13:30:35;;;;;;;6.40;5.10;;;11.40;31.00;;;12.57;25.62;99189.34;4812315;29;115016;-78
2022/03/07 13:40:45;;;;;;;6.17;4.53;;;12.10;30.40;;;13.08;25.33;99192.72;4793826;29;115345;-77
2022/03/07 13:46:56;;;;;;;5.70;4.53;;;12.50;30.50;;;13.50;25.13;99188.50;4791469;29;125111;-86
2022/03/07 13:53:10;;;;;;;6.00;4.57;;;12.90;30.10;;;13.77;24.40;99179.09;4793121;29;117480;-89
2022/03/07 13:55:50;;;;;;;4.93;4.07;;;13.00;29.70;;;13.90;24.67;99177.31;4775002;29;115509;-82
2022/03/07 14:01:58;;;;;;;6.00;4.60;;;13.30;29.70;;;14.19;24.27;99182.25;4755503;29;125826;-84
2022/03/07 14:09:06;;;;;;;4.43;3.50;;;13.60;29.60;;;14.54;24.01;99171.13;4756264;29;115015;-77
2022/03/07 14:15:14;;;;;;;5.57;4.57;;;14.00;29.20;;;14.83;23.32;99145.38;4753247;29;124629;-80
2022/03/07 14:21:22;;;;;;;6.93;5.53;;;14.20;28.00;;;14.81;22.93;99153.22;4755193;29;113745;-79
2022/03/07 14:27:34;;;;;;;5.00;3.63;;;14.30;28.30;;;15.05;23.09;99152.66;4754543;29;124282;-91
2022/03/07 14:30:40;;;;;;;4.60;3.80;;;14.40;28.40;;;15.14;23.07;99144.25;4778115;29;113435;-80
2022/03/07 14:40:52;;;;;;;5.33;3.40;;;14.70;28.20;;;15.41;22.55;99146.56;4810911;29;124873;-77
2022/03/07 14:47:00;;;;;;;4.87;3.97;;;14.90;27.90;;;15.56;22.31;99152.72;4807411;29;114343;-91
2022/03/07 14:50:24;;;;;;;9.20;3.80;;;15.00;27.70;;;15.65;22.18;99153.47;4806759;29;124855;-91
2022/03/07 14:53:48;;;;;;;4.10;3.70;;;15.10;27.70;;;15.74;22.39;99151.47;4802264;29;124473;-85
2022/03/07 14:56:16;;;;;;;6.17;5.57;;;15.20;27.70;;;15.77;21.79;99155.56;4805841;29;115862;-86
2022/03/07 15:02:25;;;;;;;5.70;4.47;;;15.20;26.90;;;15.85;21.68;99155.50;4786704;29;125243;-93
2022/03/07 15:05:11;;;;;;;5.47;4.00;;;15.30;27.00;;;15.94;21.75;99161.00;4791272;29;123789;-92
2022/03/07 15:07:39;;;;;;;4.33;3.60;;;15.40;27.10;;;16.01;21.77;99150.16;4775539;29;112565;-92
2022/03/07 15:10:06;;;;;;;6.17;5.33;;;15.50;27.10;;;16.02;21.21;99160.13;4775361;29;112863;-93
2022/03/07 15:12:34;;;;;;;5.93;4.97;;;15.50;26.30;;;15.99;21.37;99157.22;4802736;29;124124;-91
2022/03/07 15:15:02;;;;;;;4.33;3.77;;;15.60;26.50;;;16.02;21.74;99150.97;4784826;29;124508;-91
2022/03/07 15:17:32;;;;;;;4.27;3.87;;;15.50;26.60;;;16.06;21.57;99149.09;4774376;29;114043;-91
2022/03/07 15:20:38;;;;;;;4.60;3.87;;;15.60;26.60;;;16.10;21.66;99144.50;4771843;29;114276;-91
2022/03/07 15:23:24;;;;;;;4.80;4.33;;;15.70;26.60;;;16.13;21.15;99157.75;4725276;29;123778;-93
2022/03/07 15:25:53;;;;;;;4.90;4.40;;;15.70;26.30;;;16.14;21.22;99145.44;4709323;29;123495;-91
2022/03/07 15:28:21;;;;;;;4.03;3.40;;;15.70;26.40;;;16.20;21.16;99149.66;4728597;29;114168;-93
2022/03/07 15:30:49;;;;;;;4.80;4.10;;;15.70;26.50;;;16.27;21.28;99157.47;4724438;29;113815;-91
2022/03/07 15:33:54;;;;;;;5.60;4.80;;;15.80;26.40;;;16.31;21.03;99153.66;4726878;29;124809;-92
2022/03/07 15:36:43;;;;;;;4.80;4.40;;;15.90;26.10;;;16.33;21.31;99151.34;4733140;29;123599;-91
2022/03/07 15:39:32;;;;;;;5.20;4.50;;;15.90;26.30;;;16.39;21.02;99151.94;4745522;29;115087;-91
2022/03/07 15:42:38;;;;;;;4.17;3.77;;;15.90;26.20;;;16.41;21.07;99146.81;4745900;29;114698;-91
2022/03/07 15:45:43;;;;;;;5.63;4.60;;;16.00;26.20;;;16.39;20.78;99153.91;4736866;29;124168;-92
2022/03/07 15:48:10;;;;;;;5.73;5.10;;;16.10;25.90;;;16.31;20.66;99142.50;4731957;29;123158;-92
2022/03/07 15:50:39;;;;;;;5.30;4.80;;;16.00;25.50;;;16.32;20.86;99155.28;4733804;29;114951;-94
2022/03/07 15:53:10;;;;;;;4.77;4.20;;;16.10;25.80;;;16.37;20.87;99147.88;4745428;29;114575;-90
2022/03/07 15:55:37;;;;;;;4.20;3.90;;;16.20;25.80;;;16.39;21.00;99137.16;4749086;29;125218;-91
2022/03/07 16:01:45;;;;;;;4.73;4.20;;;16.40;25.70;;;16.50;21.04;99143.97;4828226;29;115316;-78
2022/03/07 16:07:53;;;;;;;10.60;4.00;;;16.60;25.40;;;16.53;20.76;99137.69;4826653;29;125122;-94
2022/03/07 16:14:02;;;;;;;6.40;4.40;;;16.80;25.10;;;16.53;20.75;99146.06;4813713;29;115345;-93
2022/03/07 16:20:10;;;;;;;6.47;5.60;;;16.90;25.00;;;16.53;20.20;99146.06;4808972;29;125038;-78
2022/03/07 16:26:19;;;;;;;5.37;4.40;;;16.80;25.10;;;16.32;20.55;99138.53;4808885;29;116986;-80
2022/03/07 16:32:27;;;;;;;6.10;4.63;;;16.50;24.50;;;16.14;20.31;99142.63;4808528;29;125124;-91
2022/03/07 16:42:52;;;;;;;5.47;4.93;;;16.00;24.30;;;15.43;20.62;99151.81;4809532;29;114990;-79
2022/03/07 16:49:01;;;;;;;5.53;4.90;;;15.40;24.00;;;14.86;20.57;99166.16;4814759;29;125973;-77
2022/03/07 16:55:11;;;;;;;5.13;4.63;;;14.80;24.10;;;14.35;20.83;99168.66;4815282;29;115961;-76
2022/03/07 17:01:25;;;;;;;5.43;4.93;;;14.30;24.20;;;13.88;20.98;99185.97;4814619;29;124760;-83
2022/03/07 17:07:35;;;;;;;5.70;5.10;;;13.70;24.20;;;13.36;21.30;99180.31;4814959;29;115358;-78
2022/03/07 17:13:43;;;;;;;5.90;5.30;;;13.20;24.40;;;12.97;21.34;99192.19;4815280;29;124881;-77
2022/03/07 17:19:52;;;;;;;5.60;5.00;;;12.70;24.50;;;12.61;21.50;99207.00;4815378;29;114997;-77
2022/03/07 19:42:08;;;;;;;8.80;7.90;;;5.50;27.70;;;7.56;26.24;99342.59;4847500;29;115346;-77
2022/03/07 19:48:17;;;;;;;9.27;7.77;;;5.10;27.60;;;7.43;26.17;99347.56;4846883;29;126620;-77
2022/03/07 19:54:25;;;;;;;8.70;7.13;;;4.80;27.70;;;7.40;26.43;99359.13;4846886;29;116219;-76
2022/03/07 20:00:34;;;;;;;11.03;7.97;;;6.80;29.10;;;7.31;26.51;99358.03;4846803;29;125094;-76
2022/03/07 20:06:43;;;;;;;9.07;7.93;;;4.60;27.90;;;7.27;26.33;99359.69;4847072;29;115325;-77
2022/03/07 20:12:52;;;;;;;10.43;8.53;;;6.60;29.40;;;7.14;26.61;99354.75;4846683;29;124982;-84
2022/03/07 20:19:02;;;;;;;9.83;7.50;;;4.70;28.30;;;7.01;26.44;99356.97;4846870;29;115320;-78
2022/03/07 20:25:14;;;;;;;9.30;7.53;;;5.40;29.00;;;6.94;26.92;99372.91;4845663;29;125170;-77
2022/03/07 20:44:58;;;;;;;11.87;9.40;;;6.20;29.90;;;6.75;27.30;99363.56;5810739;23;98789;-86
2022/03/07 20:51:31;;;;;;;8.53;7.27;;;5.50;29.60;;;6.68;26.96;99365.75;4809339;29;124723;-77
2022/03/07 20:57:41;;;;;;;11.17;7.93;;;5.50;29.70;;;6.60;27.62;99362.44;4828052;29;115892;-77
2022/03/07 21:03:51;;;;;;;9.57;7.90;;;5.10;29.60;;;6.52;27.13;99359.41;4827556;29;124682;-77
2022/03/07 21:10:03;;;;;;;10.30;7.87;;;4.90;29.50;;;6.52;27.17;99360.22;4827758;29;114951;-78
2022/03/07 21:16:12;;;;;;;12.63;8.90;;;4.20;29.20;;;6.40;27.25;99360.47;4827666;29;124759;-82
2022/03/07 21:22:20;;;;;;;10.90;8.50;;;4.20;29.30;;;6.34;27.79;99360.72;4827751;29;114973;-77
